createdAt,value
2024-05-09T00:00:30.544Z,1018.68
2024-05-09T00:01:23.993Z,1018.68
2024-05-09T00:02:24.133Z,1018.68
2024-05-09T00:03:23.999Z,1018.69
2024-05-09T00:04:23.919Z,1018.69
2024-05-09T00:05:24.062Z,1018.70
2024-05-09T00:06:23.899Z,1018.70
2024-05-09T00:07:23.867Z,1018.70
2024-05-09T00:08:23.939Z,1018.70
2024-05-09T00:09:23.975Z,1018.71
2024-05-09T00:10:32.658Z,1018.71
2024-05-09T00:11:23.953Z,1018.71
2024-05-09T00:12:24.014Z,1018.72
2024-05-09T00:13:23.833Z,1018.72
2024-05-09T00:14:23.911Z,1018.72
2024-05-09T00:15:23.839Z,1018.72
2024-05-09T00:16:23.799Z,1018.72
2024-05-09T00:17:23.886Z,1018.72
2024-05-09T00:18:24.055Z,1018.72
2024-05-09T00:19:23.961Z,1018.73
2024-05-09T00:20:28.618Z,1018.74
2024-05-09T00:21:23.837Z,1018.73
2024-05-09T00:22:23.780Z,1018.74
2024-05-09T00:23:23.788Z,1018.74
2024-05-09T00:24:23.744Z,1018.73
2024-05-09T00:25:23.712Z,1018.74
2024-05-09T00:26:23.795Z,1018.74
2024-05-09T00:27:23.890Z,1018.73
2024-05-09T00:28:23.734Z,1018.72
2024-05-09T00:29:23.798Z,1018.70
2024-05-09T00:30:31.668Z,1018.70
2024-05-09T00:31:23.692Z,1018.70
2024-05-09T00:32:23.780Z,1018.70
2024-05-09T00:33:23.995Z,1018.71
2024-05-09T00:34:23.711Z,1018.71
2024-05-09T00:35:23.801Z,1018.71
2024-05-09T00:36:23.594Z,1018.71
2024-05-09T00:37:23.585Z,1018.71
2024-05-09T00:38:23.683Z,1018.69
2024-05-09T00:39:23.828Z,1018.68
2024-05-09T00:40:34.699Z,1018.67
2024-05-09T00:41:23.613Z,1018.66
2024-05-09T00:42:23.592Z,1018.65
2024-05-09T00:43:23.503Z,1018.64
2024-05-09T00:44:23.654Z,1018.64
2024-05-09T00:45:23.598Z,1018.64
2024-05-09T00:46:23.537Z,1018.64
2024-05-09T00:47:23.645Z,1018.64
2024-05-09T00:48:23.718Z,1018.65
2024-05-09T00:49:23.520Z,1018.66
2024-05-09T00:50:29.947Z,1018.67
2024-05-09T00:51:23.650Z,1018.69
2024-05-09T00:52:23.483Z,1018.70
2024-05-09T00:53:23.517Z,1018.71
2024-05-09T00:54:23.416Z,1018.71
2024-05-09T00:55:23.459Z,1018.72
2024-05-09T00:56:23.599Z,1018.72
2024-05-09T00:57:23.465Z,1018.72
2024-05-09T00:58:23.351Z,1018.72
2024-05-09T00:59:23.523Z,1018.73
2024-05-09T01:00:31.464Z,1018.73
2024-05-09T01:01:23.405Z,1018.73
2024-05-09T01:02:23.436Z,1018.74
2024-05-09T01:03:23.588Z,1018.74
2024-05-09T01:04:23.352Z,1018.73
2024-05-09T01:05:23.395Z,1018.73
2024-05-09T01:06:23.389Z,1018.72
2024-05-09T01:07:23.320Z,1018.72
2024-05-09T01:08:23.298Z,1018.73
2024-05-09T01:09:23.496Z,1018.73
2024-05-09T01:10:28.213Z,1018.74
2024-05-09T01:11:23.400Z,1018.74
2024-05-09T01:12:23.400Z,1018.74
2024-05-09T01:13:23.309Z,1018.73
2024-05-09T01:14:23.442Z,1018.72
2024-05-09T01:15:23.283Z,1018.72
2024-05-09T01:16:23.234Z,1018.71
2024-05-09T01:17:23.432Z,1018.72
2024-05-09T01:18:23.329Z,1018.73
2024-05-09T01:19:23.430Z,1018.73
2024-05-09T01:20:32.201Z,1018.73
2024-05-09T01:21:23.377Z,1018.72
2024-05-09T01:22:23.166Z,1018.72
2024-05-09T01:23:23.234Z,1018.72
2024-05-09T01:24:23.169Z,1018.71
2024-05-09T01:25:23.246Z,1018.71
2024-05-09T01:26:23.244Z,1018.70
2024-05-09T01:27:23.216Z,1018.71
2024-05-09T01:28:23.116Z,1018.71
2024-05-09T01:29:23.292Z,1018.70
2024-05-09T01:30:31.292Z,1018.70
2024-05-09T01:31:23.135Z,1018.69
2024-05-09T01:32:23.328Z,1018.69
2024-05-09T01:33:23.441Z,1018.69
2024-05-09T01:34:23.115Z,1018.69
2024-05-09T01:35:23.208Z,1018.70
2024-05-09T01:36:23.055Z,1018.71
2024-05-09T01:37:23.114Z,1018.72
2024-05-09T01:38:23.190Z,1018.73
2024-05-09T01:39:23.112Z,1018.73
2024-05-09T01:40:33.256Z,1018.73
2024-05-09T01:41:23.062Z,1018.71
2024-05-09T01:42:22.997Z,1018.71
2024-05-09T01:43:23.014Z,1018.72
2024-05-09T01:44:23.164Z,1018.71
2024-05-09T01:45:23.021Z,1018.70
2024-05-09T01:46:23.147Z,1018.70
2024-05-09T01:47:23.190Z,1018.70
2024-05-09T01:48:23.090Z,1018.70
2024-05-09T01:49:23.051Z,1018.70
2024-05-09T01:50:34.168Z,1018.70
2024-05-09T01:51:23.080Z,1018.70
2024-05-09T01:52:22.969Z,1018.70
2024-05-09T01:53:23.034Z,1018.71
2024-05-09T01:54:22.947Z,1018.71
2024-05-09T01:55:22.902Z,1018.70
2024-05-09T01:56:23.040Z,1018.70
2024-05-09T01:57:22.904Z,1018.69
2024-05-09T01:58:22.934Z,1018.69
2024-05-09T01:59:22.921Z,1018.68
2024-05-09T02:00:33.243Z,1018.68
2024-05-09T02:01:22.873Z,1018.68
2024-05-09T02:02:23.094Z,1018.68
2024-05-09T02:03:23.069Z,1018.68
2024-05-09T02:04:23.131Z,1018.68
2024-05-09T02:05:22.987Z,1018.69
2024-05-09T02:06:22.919Z,1018.70
2024-05-09T02:07:22.765Z,1018.72
2024-05-09T02:08:22.885Z,1018.73
2024-05-09T02:09:22.794Z,1018.74
2024-05-09T02:10:26.626Z,1018.74
2024-05-09T02:11:22.847Z,1018.74
2024-05-09T02:12:22.862Z,1018.73
2024-05-09T02:13:22.746Z,1018.72
2024-05-09T02:14:22.892Z,1018.71
2024-05-09T02:15:22.762Z,1018.70
2024-05-09T02:16:22.920Z,1018.69
2024-05-09T02:17:23.046Z,1018.69
2024-05-09T02:18:22.878Z,1018.68
2024-05-09T02:19:22.902Z,1018.68
2024-05-09T02:20:30.275Z,1018.68
2024-05-09T02:21:22.743Z,1018.69
2024-05-09T02:22:22.638Z,1018.69
2024-05-09T02:23:22.778Z,1018.71
2024-05-09T02:24:22.610Z,1018.72
2024-05-09T02:25:22.628Z,1018.73
2024-05-09T02:26:22.718Z,1018.73
2024-05-09T02:27:22.629Z,1018.73
2024-05-09T02:28:22.655Z,1018.74
2024-05-09T02:29:22.634Z,1018.76
2024-05-09T02:30:30.361Z,1018.77
2024-05-09T02:31:22.556Z,1018.78
2024-05-09T02:32:22.596Z,1018.80
2024-05-09T02:33:23.041Z,1018.81
2024-05-09T02:34:23.027Z,1018.82
2024-05-09T02:35:22.627Z,1018.82
2024-05-09T02:36:22.640Z,1018.83
2024-05-09T02:37:22.493Z,1018.84
2024-05-09T02:38:22.499Z,1018.85
2024-05-09T02:39:22.563Z,1018.85
2024-05-09T02:40:29.223Z,1018.85
2024-05-09T02:41:22.597Z,1018.84
2024-05-09T02:42:22.434Z,1018.84
2024-05-09T02:43:22.600Z,1018.82
2024-05-09T02:44:22.568Z,1018.81
2024-05-09T02:45:22.523Z,1018.81
2024-05-09T02:46:22.424Z,1018.81
2024-05-09T02:47:22.481Z,1018.80
2024-05-09T02:48:22.628Z,1018.79
2024-05-09T02:49:22.508Z,1018.78
2024-05-09T02:50:29.978Z,1018.77
2024-05-09T02:51:22.372Z,1018.77
2024-05-09T02:52:22.308Z,1018.77
2024-05-09T02:53:22.362Z,1018.77
2024-05-09T02:54:22.409Z,1018.77
2024-05-09T02:55:22.289Z,1018.77
2024-05-09T02:56:22.420Z,1018.76
2024-05-09T02:57:22.300Z,1018.76
2024-05-09T02:58:22.332Z,1018.75
2024-05-09T02:59:22.493Z,1018.75
2024-05-09T03:00:29.455Z,1018.75
2024-05-09T03:01:22.267Z,1018.75
2024-05-09T03:02:22.351Z,1018.76
2024-05-09T03:03:22.610Z,1018.76
2024-05-09T03:04:22.254Z,1018.76
2024-05-09T03:05:22.296Z,1018.76
2024-05-09T03:06:22.282Z,1018.76
2024-05-09T03:07:22.211Z,1018.76
2024-05-09T03:08:22.214Z,1018.75
2024-05-09T03:09:22.234Z,1018.74
2024-05-09T03:10:25.802Z,1018.74
2024-05-09T03:11:22.395Z,1018.74
2024-05-09T03:12:22.190Z,1018.73
2024-05-09T03:13:22.140Z,1018.74
2024-05-09T03:14:22.162Z,1018.75
2024-05-09T03:15:22.154Z,1018.75
2024-05-09T03:16:22.106Z,1018.75
2024-05-09T03:17:22.250Z,1018.75
2024-05-09T03:18:22.254Z,1018.75
2024-05-09T03:19:22.449Z,1018.74
2024-05-09T03:20:27.591Z,1018.74
2024-05-09T03:21:22.170Z,1018.73
2024-05-09T03:22:22.050Z,1018.73
2024-05-09T03:23:22.075Z,1018.73
2024-05-09T03:24:22.026Z,1018.73
2024-05-09T03:25:22.022Z,1018.74
2024-05-09T03:26:22.051Z,1018.75
2024-05-09T03:27:22.118Z,1018.76
2024-05-09T03:28:22.005Z,1018.76
2024-05-09T03:29:22.039Z,1018.77
2024-05-09T03:30:30.191Z,1018.76
2024-05-09T03:31:21.986Z,1018.76
2024-05-09T03:32:22.095Z,1018.75
2024-05-09T03:33:22.562Z,1018.75
2024-05-09T03:34:21.963Z,1018.75
2024-05-09T03:35:22.084Z,1018.74
2024-05-09T03:36:21.898Z,1018.73
2024-05-09T03:37:21.902Z,1018.73
2024-05-09T03:38:21.964Z,1018.72
2024-05-09T03:39:21.922Z,1018.71
2024-05-09T03:40:26.514Z,1018.70
2024-05-09T03:41:21.948Z,1018.70
2024-05-09T03:42:21.875Z,1018.69
2024-05-09T03:43:21.929Z,1018.70
2024-05-09T03:44:21.889Z,1018.71
2024-05-09T03:45:21.889Z,1018.71
2024-05-09T03:46:21.881Z,1018.71
2024-05-09T03:47:22.062Z,1018.71
2024-05-09T03:48:21.970Z,1018.71
2024-05-09T03:49:22.237Z,1018.71
2024-05-09T03:50:29.954Z,1018.71
2024-05-09T03:51:21.815Z,1018.72
2024-05-09T03:52:21.766Z,1018.71
2024-05-09T03:53:21.831Z,1018.71
2024-05-09T03:54:21.749Z,1018.71
2024-05-09T03:55:21.749Z,1018.70
2024-05-09T03:56:21.810Z,1018.70
2024-05-09T03:57:21.845Z,1018.70
2024-05-09T03:58:21.725Z,1018.70
2024-05-09T03:59:21.789Z,1018.69
2024-05-09T04:00:26.728Z,1018.68
2024-05-09T04:01:21.768Z,1018.67
2024-05-09T04:02:21.822Z,1018.66
2024-05-09T04:03:21.914Z,1018.66
2024-05-09T04:04:21.749Z,1018.64
2024-05-09T04:05:21.718Z,1018.64
2024-05-09T04:06:21.674Z,1018.62
2024-05-09T04:07:21.664Z,1018.60
2024-05-09T04:08:21.713Z,1018.58
2024-05-09T04:09:21.855Z,1018.57
2024-05-09T04:10:30.192Z,1018.57
2024-05-09T04:11:21.770Z,1018.57
2024-05-09T04:12:21.655Z,1018.58
2024-05-09T04:13:21.665Z,1018.58
2024-05-09T04:14:21.651Z,1018.58
2024-05-09T04:15:21.623Z,1018.58
2024-05-09T04:16:21.585Z,1018.58
2024-05-09T04:17:21.584Z,1018.58
2024-05-09T04:18:21.686Z,1018.58
2024-05-09T04:19:21.774Z,1018.59
2024-05-09T04:20:32.596Z,1018.58
2024-05-09T04:21:21.691Z,1018.59
2024-05-09T04:22:21.525Z,1018.59
2024-05-09T04:23:21.572Z,1018.60
2024-05-09T04:24:21.500Z,1018.62
2024-05-09T04:25:21.598Z,1018.62
2024-05-09T04:26:21.547Z,1018.63
2024-05-09T04:27:21.554Z,1018.63
2024-05-09T04:28:21.502Z,1018.64
2024-05-09T04:29:21.540Z,1018.65
2024-05-09T04:30:30.623Z,1018.66
2024-05-09T04:31:21.456Z,1018.68
2024-05-09T04:32:21.671Z,1018.69
2024-05-09T04:33:21.871Z,1018.71
2024-05-09T04:34:21.512Z,1018.72
2024-05-09T04:35:21.520Z,1018.74
2024-05-09T04:36:21.385Z,1018.75
2024-05-09T04:37:21.454Z,1018.77
2024-05-09T04:38:21.565Z,1018.78
2024-05-09T04:39:21.410Z,1018.79
2024-05-09T04:40:28.352Z,1018.80
2024-05-09T04:41:21.368Z,1018.81
2024-05-09T04:42:21.435Z,1018.82
2024-05-09T04:43:21.323Z,1018.83
2024-05-09T04:44:21.370Z,1018.84
2024-05-09T04:45:21.373Z,1018.84
2024-05-09T04:46:21.306Z,1018.85
2024-05-09T04:47:21.430Z,1018.85
2024-05-09T04:48:21.525Z,1018.85
2024-05-09T04:49:21.393Z,1018.85
2024-05-09T04:50:29.954Z,1018.86
2024-05-09T04:51:21.324Z,1018.86
2024-05-09T04:52:21.265Z,1018.87
2024-05-09T04:53:21.279Z,1018.88
2024-05-09T04:54:30.384Z,1018.89
2024-05-09T04:55:21.285Z,1018.90
2024-05-09T04:56:21.262Z,1018.91
2024-05-09T04:57:21.246Z,1018.92
2024-05-09T04:58:21.187Z,1018.93
2024-05-09T04:59:21.235Z,1018.94
2024-05-09T05:00:28.634Z,1018.94
2024-05-09T05:01:21.227Z,1018.95
2024-05-09T05:02:21.230Z,1018.95
2024-05-09T05:03:21.592Z,1018.96
2024-05-09T05:04:21.267Z,1018.96
2024-05-09T05:05:21.146Z,1018.97
2024-05-09T05:06:21.164Z,1018.97
2024-05-09T05:07:21.103Z,1018.97
2024-05-09T05:08:21.246Z,1018.98
2024-05-09T05:09:21.145Z,1018.99
2024-05-09T05:10:25.236Z,1019.00
2024-05-09T05:11:21.158Z,1019.00
2024-05-09T05:12:21.176Z,1019.00
2024-05-09T05:13:22.274Z,1019.00
2024-05-09T05:14:21.083Z,1019.00
2024-05-09T05:15:21.139Z,1019.02
2024-05-09T05:16:21.072Z,1019.04
2024-05-09T05:17:21.137Z,1019.05
2024-05-09T05:18:21.222Z,1019.06
2024-05-09T05:19:21.065Z,1019.05
2024-05-09T05:20:27.374Z,1019.06
2024-05-09T05:21:21.380Z,1019.07
2024-05-09T05:22:20.970Z,1019.08
2024-05-09T05:23:21.041Z,1019.09
2024-05-09T05:24:20.965Z,1019.09
2024-05-09T05:25:20.922Z,1019.10
2024-05-09T05:26:21.035Z,1019.11
2024-05-09T05:27:20.955Z,1019.12
2024-05-09T05:28:20.958Z,1019.13
2024-05-09T05:29:21.197Z,1019.13
2024-05-09T05:30:25.374Z,1019.14
2024-05-09T05:31:20.976Z,1019.15
2024-05-09T05:32:21.047Z,1019.15
2024-05-09T05:33:21.092Z,1019.16
2024-05-09T05:34:20.840Z,1019.17
2024-05-09T05:35:20.888Z,1019.18
2024-05-09T05:36:20.933Z,1019.17
2024-05-09T05:37:20.827Z,1019.16
2024-05-09T05:38:24.847Z,1019.16
2024-05-09T05:39:20.930Z,1019.15
2024-05-09T05:40:28.224Z,1019.14
2024-05-09T05:41:20.911Z,1019.15
2024-05-09T05:42:20.771Z,1019.16
2024-05-09T05:43:20.764Z,1019.16
2024-05-09T05:44:20.905Z,1019.17
2024-05-09T05:45:20.805Z,1019.17
2024-05-09T05:46:20.741Z,1019.17
2024-05-09T05:47:20.828Z,1019.15
2024-05-09T05:48:20.875Z,1019.15
2024-05-09T05:49:20.896Z,1019.15
2024-05-09T05:50:27.663Z,1019.15
2024-05-09T05:51:20.854Z,1019.15
2024-05-09T05:52:20.689Z,1019.15
2024-05-09T05:53:20.723Z,1019.15
2024-05-09T05:54:20.659Z,1019.15
2024-05-09T05:55:20.659Z,1019.14
2024-05-09T05:56:20.676Z,1019.13
2024-05-09T05:57:20.716Z,1019.13
2024-05-09T05:58:20.649Z,1019.12
2024-05-09T05:59:20.687Z,1019.11
2024-05-09T06:00:29.291Z,1019.09
2024-05-09T06:01:20.620Z,1019.10
2024-05-09T06:02:20.684Z,1019.09
2024-05-09T06:03:20.830Z,1019.09
2024-05-09T06:04:20.618Z,1019.09
2024-05-09T06:05:20.626Z,1019.09
2024-05-09T06:06:20.602Z,1019.09
2024-05-09T06:07:20.539Z,1019.10
2024-05-09T06:08:20.706Z,1019.10
2024-05-09T06:09:20.582Z,1019.12
2024-05-09T06:10:25.679Z,1019.13
2024-05-09T06:11:20.560Z,1019.15
2024-05-09T06:12:20.760Z,1019.15
2024-05-09T06:13:20.528Z,1019.16
2024-05-09T06:14:20.633Z,1019.16
2024-05-09T06:15:20.535Z,1019.16
2024-05-09T06:16:20.476Z,1019.17
2024-05-09T06:17:20.599Z,1019.18
2024-05-09T06:18:20.681Z,1019.20
2024-05-09T06:19:20.726Z,1019.21
2024-05-09T06:20:27.140Z,1019.21
2024-05-09T06:21:20.619Z,1019.21
2024-05-09T06:22:20.404Z,1019.21
2024-05-09T06:23:20.448Z,1019.20
2024-05-09T06:24:20.400Z,1019.20
2024-05-09T06:25:20.396Z,1019.19
2024-05-09T06:26:20.479Z,1019.17
2024-05-09T06:27:20.411Z,1019.17
2024-05-09T06:28:20.365Z,1019.16
2024-05-09T06:29:20.392Z,1019.16
2024-05-09T06:30:29.857Z,1019.17
2024-05-09T06:31:20.349Z,1019.18
2024-05-09T06:32:20.492Z,1019.19
2024-05-09T06:33:20.530Z,1019.20
2024-05-09T06:34:20.512Z,1019.20
2024-05-09T06:35:20.403Z,1019.21
2024-05-09T06:36:20.282Z,1019.21
2024-05-09T06:37:20.314Z,1019.21
2024-05-09T06:38:20.428Z,1019.20
2024-05-09T06:39:20.289Z,1019.20
2024-05-09T06:40:25.713Z,1019.20
2024-05-09T06:41:20.247Z,1019.19
2024-05-09T06:42:20.258Z,1019.19
2024-05-09T06:43:20.309Z,1019.19
2024-05-09T06:44:20.296Z,1019.20
2024-05-09T06:45:20.273Z,1019.19
2024-05-09T06:46:20.202Z,1019.20
2024-05-09T06:47:20.379Z,1019.19
2024-05-09T06:48:20.728Z,1019.19
2024-05-09T06:49:20.387Z,1019.18
2024-05-09T06:50:24.135Z,1019.18
2024-05-09T06:51:20.234Z,1019.18
2024-05-09T06:52:20.144Z,1019.18
2024-05-09T06:53:20.185Z,1019.19
2024-05-09T06:54:20.125Z,1019.19
2024-05-09T06:55:20.103Z,1019.19
2024-05-09T06:56:20.144Z,1019.19
2024-05-09T06:57:20.136Z,1019.19
2024-05-09T06:58:20.104Z,1019.20
2024-05-09T06:59:20.151Z,1019.20
2024-05-09T07:00:27.523Z,1019.21
2024-05-09T07:01:20.080Z,1019.20
2024-05-09T07:02:20.160Z,1019.20
2024-05-09T07:03:20.328Z,1019.20
2024-05-09T07:04:20.204Z,1019.20
2024-05-09T07:05:20.157Z,1019.20
2024-05-09T07:06:20.011Z,1019.21
2024-05-09T07:07:20.015Z,1019.21
2024-05-09T07:08:20.069Z,1019.20
2024-05-09T07:09:20.034Z,1019.19
2024-05-09T07:10:28.453Z,1019.20
2024-05-09T07:11:20.004Z,1019.20
2024-05-09T07:12:20.067Z,1019.20
2024-05-09T07:13:19.935Z,1019.21
2024-05-09T07:14:19.934Z,1019.21
2024-05-09T07:15:19.964Z,1019.21
2024-05-09T07:16:19.934Z,1019.21
2024-05-09T07:17:20.027Z,1019.22
2024-05-09T07:18:20.677Z,1019.22
2024-05-09T07:19:20.113Z,1019.22
2024-05-09T07:20:27.581Z,1019.20
2024-05-09T07:21:19.951Z,1019.20
2024-05-09T07:22:19.870Z,1019.20
2024-05-09T07:23:19.966Z,1019.20
2024-05-09T07:24:19.879Z,1019.21
2024-05-09T07:25:19.848Z,1019.22
2024-05-09T07:26:19.865Z,1019.23
2024-05-09T07:27:19.868Z,1019.23
2024-05-09T07:28:19.926Z,1019.25
2024-05-09T07:29:19.824Z,1019.25
2024-05-09T07:30:27.090Z,1019.26
2024-05-09T07:31:19.815Z,1019.25
2024-05-09T07:32:19.816Z,1019.26
2024-05-09T07:33:21.545Z,1019.25
2024-05-09T07:34:19.972Z,1019.25
2024-05-09T07:35:19.904Z,1019.26
2024-05-09T07:36:19.740Z,1019.25
2024-05-09T07:37:19.747Z,1019.23
2024-05-09T07:38:19.841Z,1019.23
2024-05-09T07:39:19.724Z,1019.22
2024-05-09T07:40:28.592Z,1019.22
2024-05-09T07:41:19.791Z,1019.21
2024-05-09T07:42:19.688Z,1019.20
2024-05-09T07:43:19.691Z,1019.16
2024-05-09T07:44:19.687Z,1019.16
2024-05-09T07:45:39.882Z,1019.15
2024-05-09T07:48:29.226Z,1019.10
2024-05-09T07:52:22.623Z,1019.08
2024-05-09T07:53:42.313Z,1019.05
2024-05-09T07:53:53.523Z,1019.01
2024-05-09T07:54:45.517Z,1019.01
2024-05-09T07:55:45.505Z,1018.98
2024-05-09T07:56:45.466Z,1018.97
2024-05-09T07:57:45.360Z,1018.96
2024-05-09T07:58:45.378Z,1018.97
2024-05-09T07:59:45.294Z,1018.96
2024-05-09T08:00:45.430Z,1018.97
2024-05-09T08:01:45.501Z,1018.97
2024-05-09T08:02:45.302Z,1018.96
2024-05-09T08:03:45.574Z,1018.97
2024-05-09T08:04:45.525Z,1018.94
2024-05-09T08:05:45.322Z,1018.98
2024-05-09T08:06:45.275Z,1018.98
2024-05-09T08:07:45.263Z,1018.99
2024-05-09T08:08:45.224Z,1018.97
2024-05-09T08:09:45.250Z,1018.98
2024-05-09T08:10:45.443Z,1018.95
2024-05-09T08:11:45.204Z,1018.97
2024-05-09T08:12:45.273Z,1018.96
2024-05-09T08:13:45.161Z,1018.96
2024-05-09T08:14:45.164Z,1018.97
2024-05-09T08:15:45.331Z,1018.97
2024-05-09T08:16:45.194Z,1018.98
2024-05-09T08:17:45.178Z,1018.97
2024-05-09T08:18:45.244Z,1018.97
2024-05-09T08:19:45.222Z,1018.97
2024-05-09T08:20:45.089Z,1018.96
2024-05-09T08:21:45.169Z,1018.95
2024-05-09T08:22:45.115Z,1018.93
2024-05-09T08:23:45.065Z,1018.92
2024-05-09T08:24:45.127Z,1018.93
2024-05-09T08:25:45.059Z,1018.91
2024-05-09T08:26:45.063Z,1018.91
2024-05-09T08:27:45.067Z,1018.91
2024-05-09T08:28:45.139Z,1018.91
2024-05-09T08:29:45.049Z,1018.90
2024-05-09T08:30:45.211Z,1018.89
2024-05-09T08:31:45.034Z,1018.89
2024-05-09T08:32:45.047Z,1018.87
2024-05-09T08:33:45.326Z,1018.86
2024-05-09T08:34:45.050Z,1018.85
2024-05-09T08:35:44.976Z,1018.84
2024-05-09T08:36:44.994Z,1018.82
2024-05-09T08:37:44.982Z,1018.83
2024-05-09T08:38:44.927Z,1018.82
2024-05-09T08:39:44.943Z,1018.82
2024-05-09T08:40:44.996Z,1018.83
2024-05-09T08:41:44.887Z,1018.82
2024-05-09T08:42:44.925Z,1018.85
2024-05-09T08:43:44.950Z,1018.85
2024-05-09T08:44:44.893Z,1018.86
2024-05-09T08:45:45.584Z,1018.86
2024-05-09T08:46:44.940Z,1018.88
2024-05-09T08:47:44.882Z,1018.88
2024-05-09T08:48:45.147Z,1018.88
2024-05-09T08:49:44.877Z,1018.88
2024-05-09T08:50:45.817Z,1018.87
2024-05-09T08:51:44.820Z,1018.87
2024-05-09T08:52:44.876Z,1018.86
2024-05-09T08:53:44.859Z,1018.86
2024-05-09T08:54:44.806Z,1018.88
2024-05-09T08:55:44.894Z,1018.85
2024-05-09T08:56:44.771Z,1018.82
2024-05-09T08:57:44.875Z,1018.82
2024-05-09T08:58:44.824Z,1018.82
2024-05-09T08:59:44.745Z,1018.83
2024-05-09T09:00:45.529Z,1018.82
2024-05-09T09:01:44.971Z,1018.83
2024-05-09T09:02:45.073Z,1018.82
2024-05-09T09:03:44.837Z,1018.78
2024-05-09T09:04:45.069Z,1018.77
2024-05-09T09:05:44.734Z,1018.76
2024-05-09T09:06:44.800Z,1018.75
2024-05-09T09:07:44.678Z,1018.75
2024-05-09T09:08:44.674Z,1018.75
2024-05-09T09:09:44.722Z,1018.76
2024-05-09T09:10:44.961Z,1018.76
2024-05-09T09:11:44.665Z,1018.79
2024-05-09T09:12:44.642Z,1018.78
2024-05-09T09:13:44.628Z,1018.78
2024-05-09T09:14:44.634Z,1018.74
2024-05-09T09:15:44.638Z,1018.75
2024-05-09T09:16:44.656Z,1018.75
2024-05-09T09:17:44.643Z,1018.70
2024-05-09T09:18:45.001Z,1018.67
2024-05-09T09:19:44.646Z,1018.77
2024-05-09T09:20:44.773Z,1018.77
2024-05-09T09:21:44.594Z,1018.77
2024-05-09T09:22:44.633Z,1018.77
2024-05-09T09:23:44.610Z,1018.76
2024-05-09T09:24:44.571Z,1018.75
2024-05-09T09:25:44.547Z,1018.75
2024-05-09T09:26:44.542Z,1018.73
2024-05-09T09:27:44.509Z,1018.73
2024-05-09T09:28:44.568Z,1018.77
2024-05-09T09:29:44.565Z,1018.71
2024-05-09T09:30:44.566Z,1018.75
2024-05-09T09:31:44.445Z,1018.71
2024-05-09T09:32:44.527Z,1018.72
2024-05-09T09:33:44.638Z,1018.72
2024-05-09T09:34:44.533Z,1018.73
2024-05-09T09:35:44.447Z,1018.75
2024-05-09T09:36:44.517Z,1018.73
2024-05-09T09:37:44.435Z,1018.77
2024-05-09T09:38:44.530Z,1018.79
2024-05-09T09:39:48.777Z,1018.77
2024-05-09T09:40:48.382Z,1018.78
2024-05-09T09:41:44.408Z,1018.78
2024-05-09T09:42:44.446Z,1018.77
2024-05-09T09:43:44.344Z,1018.81
2024-05-09T09:44:47.800Z,1018.79
2024-05-09T09:45:44.446Z,1018.74
2024-05-09T09:46:44.397Z,1018.74
2024-05-09T09:47:44.600Z,1018.76
2024-05-09T09:48:44.385Z,1018.72
2024-05-09T09:49:44.418Z,1018.73
2024-05-09T09:50:44.322Z,1018.73
2024-05-09T09:51:44.336Z,1018.74
2024-05-09T09:52:44.376Z,1018.74
2024-05-09T09:53:44.286Z,1018.75
2024-05-09T09:54:44.351Z,1018.76
2024-05-09T09:55:44.296Z,1018.75
2024-05-09T09:56:44.301Z,1018.77
2024-05-09T09:57:44.318Z,1018.77
2024-05-09T09:58:44.348Z,1018.75
2024-05-09T09:59:44.277Z,1018.75
2024-05-09T10:00:44.646Z,1018.73
2024-05-09T10:01:44.345Z,1018.72
2024-05-09T10:02:44.298Z,1018.71
2024-05-09T10:03:44.321Z,1018.71
2024-05-09T10:04:44.355Z,1018.65
2024-05-09T10:05:46.518Z,1018.63
2024-05-09T10:06:44.257Z,1018.60
2024-05-09T10:07:44.177Z,1018.61
2024-05-09T10:08:44.185Z,1018.62
2024-05-09T10:09:44.225Z,1018.64
2024-05-09T10:10:44.564Z,1018.66
2024-05-09T10:11:49.174Z,1018.62
2024-05-09T10:12:44.181Z,1018.65
2024-05-09T10:13:44.159Z,1018.66
2024-05-09T10:14:44.127Z,1018.65
2024-05-09T10:15:44.144Z,1018.65
2024-05-09T10:16:44.146Z,1018.64
2024-05-09T10:17:44.236Z,1018.64
2024-05-09T10:18:44.261Z,1018.64
2024-05-09T10:19:44.223Z,1018.64
2024-05-09T10:20:44.185Z,1018.62
2024-05-09T10:21:44.080Z,1018.62
2024-05-09T10:22:44.155Z,1018.61
2024-05-09T10:23:44.028Z,1018.58
2024-05-09T10:24:44.111Z,1018.55
2024-05-09T10:25:44.033Z,1018.55
2024-05-09T10:26:44.017Z,1018.59
2024-05-09T10:27:44.048Z,1018.56
2024-05-09T10:28:44.069Z,1018.51
2024-05-09T10:29:43.995Z,1018.59
2024-05-09T10:30:44.877Z,1018.53
2024-05-09T10:31:44.157Z,1018.51
2024-05-09T10:32:44.160Z,1018.51
2024-05-09T10:33:44.487Z,1018.49
2024-05-09T10:34:44.047Z,1018.50
2024-05-09T10:35:43.968Z,1018.51
2024-05-09T10:36:43.954Z,1018.53
2024-05-09T10:37:43.975Z,1018.54
2024-05-09T10:38:43.976Z,1018.52
2024-05-09T10:39:43.988Z,1018.54
2024-05-09T10:40:43.994Z,1018.53
2024-05-09T10:41:43.907Z,1018.52
2024-05-09T10:42:43.956Z,1018.47
2024-05-09T10:43:43.889Z,1018.49
2024-05-09T10:44:43.881Z,1018.46
2024-05-09T10:45:43.881Z,1018.44
2024-05-09T10:46:43.870Z,1018.41
2024-05-09T10:47:43.988Z,1018.42
2024-05-09T10:48:44.289Z,1018.41
2024-05-09T10:49:43.871Z,1018.42
2024-05-09T10:50:43.912Z,1018.43
2024-05-09T10:51:43.958Z,1018.40
2024-05-09T10:52:43.832Z,1018.40
2024-05-09T10:53:43.818Z,1018.41
2024-05-09T10:54:43.871Z,1018.39
2024-05-09T10:55:43.804Z,1018.39
2024-05-09T10:56:43.831Z,1018.37
2024-05-09T10:57:43.796Z,1018.35
2024-05-09T10:58:43.878Z,1018.38
2024-05-09T10:59:43.739Z,1018.37
2024-05-09T11:00:43.863Z,1018.35
2024-05-09T11:01:43.837Z,1018.33
2024-05-09T11:02:43.894Z,1018.32
2024-05-09T11:03:43.880Z,1018.36
2024-05-09T11:04:43.915Z,1018.33
2024-05-09T11:05:43.830Z,1018.33
2024-05-09T11:06:43.748Z,1018.30
2024-05-09T11:07:43.738Z,1018.38
2024-05-09T11:08:43.695Z,1018.34
2024-05-09T11:09:43.708Z,1018.32
2024-05-09T11:10:43.792Z,1018.33
2024-05-09T11:11:43.721Z,1018.31
2024-05-09T11:12:43.794Z,1018.37
2024-05-09T11:13:43.683Z,1018.35
2024-05-09T11:14:43.654Z,1018.36
2024-05-09T11:15:43.714Z,1018.37
2024-05-09T11:16:43.696Z,1018.38
2024-05-09T11:17:43.800Z,1018.34
2024-05-09T11:18:44.031Z,1018.33
2024-05-09T11:19:43.644Z,1018.31
2024-05-09T11:20:43.731Z,1018.27
2024-05-09T11:21:43.712Z,1018.27
2024-05-09T11:22:43.598Z,1018.29
2024-05-09T11:23:43.574Z,1018.28
2024-05-09T11:24:43.681Z,1018.27
2024-05-09T11:25:43.534Z,1018.27
2024-05-09T11:26:43.574Z,1018.25
2024-05-09T11:27:43.608Z,1018.23
2024-05-09T11:28:43.639Z,1018.22
2024-05-09T11:29:43.541Z,1018.19
2024-05-09T11:30:43.615Z,1018.18
2024-05-09T11:31:43.596Z,1018.17
2024-05-09T11:32:43.552Z,1018.17
2024-05-09T11:33:43.866Z,1018.10
2024-05-09T11:34:43.564Z,1018.02
2024-05-09T11:35:43.484Z,1018.08
2024-05-09T11:36:43.562Z,1018.12
2024-05-09T11:37:43.461Z,1018.10
2024-05-09T11:38:43.473Z,1018.06
2024-05-09T11:39:43.557Z,1018.09
2024-05-09T11:40:43.504Z,1018.08
2024-05-09T11:41:43.455Z,1018.14
2024-05-09T11:42:43.466Z,1018.10
2024-05-09T11:43:43.409Z,1018.11
2024-05-09T11:44:43.414Z,1018.08
2024-05-09T11:45:43.395Z,1018.09
2024-05-09T11:46:43.446Z,1018.07
2024-05-09T11:47:43.483Z,1018.05
2024-05-09T11:48:43.667Z,1018.06
2024-05-09T11:49:43.355Z,1018.06
2024-05-09T11:50:43.378Z,1018.06
2024-05-09T11:51:43.431Z,1018.02
2024-05-09T11:52:43.414Z,1018.02
2024-05-09T11:53:43.359Z,1018.03
2024-05-09T11:54:43.380Z,1018.00
2024-05-09T11:55:43.351Z,1018.00
2024-05-09T11:56:43.278Z,1017.99
2024-05-09T11:57:43.371Z,1017.96
2024-05-09T11:58:43.349Z,1017.96
2024-05-09T11:59:43.310Z,1017.94
2024-05-09T12:00:43.365Z,1017.94
2024-05-09T12:01:43.318Z,1017.96
2024-05-09T12:02:43.359Z,1017.98
2024-05-09T12:03:43.304Z,1018.00
2024-05-09T12:04:43.420Z,1017.97
2024-05-09T12:05:43.526Z,1017.95
2024-05-09T12:06:43.251Z,1017.93
2024-05-09T12:07:43.254Z,1017.90
2024-05-09T12:08:43.207Z,1017.89
2024-05-09T12:09:43.249Z,1017.85